createdAt,value
2018-08-19T00:01:45.119Z,66.37
2018-08-19T00:04:14.571Z,27.90
2018-08-19T00:06:44.001Z,15.40
2018-08-19T00:09:12.579Z,32.23
2018-08-19T00:11:42.156Z,69.03
2018-08-19T00:14:25.457Z,20.53
2018-08-19T00:16:54.906Z,31.73
2018-08-19T00:19:23.368Z,59.87
2018-08-19T00:21:51.836Z,44.30
2018-08-19T00:24:20.176Z,86.77
2018-08-19T00:26:48.747Z,53.03
2018-08-19T00:29:23.795Z,66.50
2018-08-19T00:31:52.948Z,62.90
2018-08-19T00:34:30.391Z,36.97
2018-08-19T00:36:58.811Z,46.70
2018-08-19T00:39:27.180Z,32.00
2018-08-19T00:41:56.052Z,60.40
2018-08-19T00:44:24.446Z,30.60
2018-08-19T00:46:52.860Z,64.33
2018-08-19T00:49:21.392Z,27.50
2018-08-19T00:51:54.954Z,11.60
2018-08-19T00:54:23.576Z,14.03
2018-08-19T00:56:55.639Z,29.13
2018-08-19T00:59:25.421Z,27.97
2018-08-19T01:01:53.888Z,45.70
2018-08-19T01:04:22.388Z,34.60
2018-08-19T01:06:52.949Z,40.67
2018-08-19T01:09:24.690Z,20.13
2018-08-19T01:11:53.100Z,23.93
2018-08-19T01:14:21.552Z,14.90
2018-08-19T01:16:49.924Z,40.50
2018-08-19T01:19:18.980Z,31.70
2018-08-19T01:21:51.831Z,28.67
2018-08-19T01:24:20.498Z,24.13
2018-08-19T01:26:48.925Z,19.10
2018-08-19T01:29:28.716Z,23.33
2018-08-19T01:32:00.089Z,20.27
2018-08-19T01:34:28.490Z,14.03
2018-08-19T01:36:57.032Z,19.80
2018-08-19T01:39:25.372Z,38.17
2018-08-19T01:41:53.860Z,24.10
2018-08-19T01:44:22.312Z,16.10
2018-08-19T01:46:51.541Z,23.93
2018-08-19T01:49:19.874Z,37.80
2018-08-19T01:51:48.629Z,39.27
2018-08-19T01:54:22.296Z,17.57
2018-08-19T01:56:54.156Z,24.47
2018-08-19T01:59:23.188Z,27.80
2018-08-19T02:01:53.429Z,55.67
2018-08-19T02:04:22.512Z,11.03
2018-08-19T02:06:53.866Z,7.77
2018-08-19T02:09:22.570Z,30.73
2018-08-19T02:11:56.689Z,29.40
2018-08-19T02:14:25.369Z,23.37
2018-08-19T02:16:54.583Z,23.67
2018-08-19T02:19:23.024Z,15.63
2018-08-19T02:21:52.098Z,23.03
2018-08-19T02:24:20.632Z,13.37
2018-08-19T02:26:49.188Z,10.40
2018-08-19T02:29:31.858Z,17.87
2018-08-19T02:32:02.391Z,11.27
2018-08-19T02:34:31.750Z,26.13
2018-08-19T02:37:04.142Z,10.03
2018-08-19T02:39:34.375Z,10.50
2018-08-19T02:42:02.766Z,20.13
2018-08-19T02:44:31.234Z,9.70
2018-08-19T02:46:59.828Z,11.70
2018-08-19T02:49:28.304Z,12.53
2018-08-19T02:51:56.749Z,9.23
2018-08-19T02:54:25.105Z,7.93
2018-08-19T02:56:53.444Z,7.37
2018-08-19T02:59:21.896Z,9.67
2018-08-19T03:01:50.568Z,14.07
2018-08-19T03:04:19.032Z,7.60
2018-08-19T03:06:47.507Z,9.80
2018-08-19T03:09:15.916Z,9.40
2018-08-19T03:11:44.452Z,19.70
2018-08-19T03:14:12.828Z,8.83
2018-08-19T03:16:41.236Z,8.10
2018-08-19T03:19:09.560Z,8.50
2018-08-19T03:21:38.107Z,7.77
2018-08-19T03:24:06.508Z,7.53
2018-08-19T03:26:34.950Z,13.43
2018-08-19T03:29:08.638Z,11.63
2018-08-19T03:31:37.060Z,10.37
2018-08-19T03:34:05.488Z,7.40
2018-08-19T03:36:33.972Z,8.60
2018-08-19T03:39:11.683Z,9.30
2018-08-19T03:41:40.148Z,10.43
2018-08-19T03:44:08.504Z,12.43
2018-08-19T03:46:36.888Z,9.90
2018-08-19T03:49:05.394Z,11.60
2018-08-19T03:51:33.724Z,7.23
2018-08-19T03:54:02.058Z,9.17
2018-08-19T03:56:30.456Z,6.73
2018-08-19T03:59:00.099Z,8.33
2018-08-19T04:01:36.304Z,8.20
2018-08-19T04:04:04.682Z,7.80
2018-08-19T04:06:33.055Z,7.67
2018-08-19T04:09:01.530Z,8.60
2018-08-19T04:11:29.852Z,8.20
2018-08-19T04:13:58.165Z,10.83
2018-08-19T04:16:26.705Z,8.23
2018-08-19T04:19:04.856Z,7.50
2018-08-19T04:21:33.325Z,7.93
2018-08-19T04:24:01.662Z,11.47
2018-08-19T04:26:30.702Z,8.67
2018-08-19T04:28:59.212Z,7.47
2018-08-19T04:31:27.601Z,7.87
2018-08-19T04:33:56.030Z,7.80
2018-08-19T04:36:25.272Z,8.30
2018-08-19T04:38:53.628Z,8.10
2018-08-19T04:41:21.971Z,10.33
2018-08-19T04:43:50.464Z,6.60
2018-08-19T04:46:18.800Z,6.23
2018-08-19T04:48:48.060Z,6.77
2018-08-19T04:51:16.781Z,7.87
2018-08-19T04:53:45.104Z,7.17
2018-08-19T04:56:13.430Z,7.27
2018-08-19T04:58:41.824Z,7.43
2018-08-19T05:01:10.652Z,12.13
2018-08-19T05:03:39.125Z,10.00
2018-08-19T05:06:07.539Z,7.60
2018-08-19T05:08:35.927Z,9.20
2018-08-19T05:11:04.314Z,9.80
2018-08-19T05:13:32.696Z,10.17
2018-08-19T05:16:01.116Z,8.47
2018-08-19T05:18:29.460Z,9.40
2018-08-19T05:21:17.004Z,8.53
2018-08-19T05:23:45.412Z,8.63
2018-08-19T05:26:14.076Z,9.23
2018-08-19T05:28:45.468Z,10.20
2018-08-19T05:31:13.885Z,9.20
2018-08-19T05:33:42.675Z,14.50
2018-08-19T05:36:11.180Z,17.20
2018-08-19T05:38:39.586Z,12.03
2018-08-19T05:41:10.004Z,9.50
2018-08-19T05:43:38.634Z,9.90
2018-08-19T05:46:06.988Z,12.27
2018-08-19T05:48:35.354Z,9.23
2018-08-19T05:51:03.986Z,13.20
2018-08-19T05:53:32.716Z,8.43
2018-08-19T05:56:01.141Z,19.07
2018-08-19T05:58:29.594Z,23.47
2018-08-19T06:00:59.959Z,17.33
2018-08-19T06:03:28.571Z,16.13
2018-08-19T06:05:57.426Z,8.53
2018-08-19T06:08:25.956Z,15.83
2018-08-19T06:10:54.344Z,8.23
2018-08-19T06:13:22.971Z,17.37
2018-08-19T06:15:51.367Z,8.80
2018-08-19T06:18:19.716Z,8.30
2018-08-19T06:20:48.080Z,11.17
2018-08-19T06:23:16.438Z,10.00
2018-08-19T06:25:44.850Z,20.17
2018-08-19T06:28:13.318Z,12.27
2018-08-19T06:30:41.642Z,9.10
2018-08-19T06:33:10.253Z,22.20
2018-08-19T06:35:38.624Z,10.27
2018-08-19T06:38:07.000Z,10.57
2018-08-19T06:40:35.365Z,7.80
2018-08-19T06:43:03.925Z,14.30
2018-08-19T06:45:32.269Z,18.80
2018-08-19T06:48:00.664Z,10.73
2018-08-19T06:50:30.929Z,16.67
2018-08-19T06:52:59.285Z,9.97
2018-08-19T06:55:27.699Z,20.43
2018-08-19T06:57:58.530Z,14.57
2018-08-19T07:00:28.766Z,20.40
2018-08-19T07:02:58.988Z,10.77
2018-08-19T07:05:27.632Z,16.07
2018-08-19T07:07:56.106Z,17.07
2018-08-19T07:10:31.153Z,12.47
2018-08-19T07:13:04.424Z,12.17
2018-08-19T07:15:33.021Z,29.50
2018-08-19T07:18:01.392Z,21.20
2018-08-19T07:20:29.795Z,14.97
2018-08-19T07:22:58.195Z,32.27
2018-08-19T07:25:26.614Z,19.70
2018-08-19T07:27:54.992Z,53.77
2018-08-19T07:30:23.408Z,33.70
2018-08-19T07:32:51.758Z,49.00
2018-08-19T07:35:20.157Z,25.87
2018-08-19T07:37:48.784Z,13.93
2018-08-19T07:40:17.261Z,26.83
2018-08-19T07:42:45.940Z,27.20
2018-08-19T07:45:14.429Z,62.40
2018-08-19T07:47:42.880Z,21.60
2018-08-19T07:50:11.596Z,54.10
2018-08-19T07:52:40.311Z,46.43
2018-08-19T07:55:09.298Z,30.77
2018-08-19T07:57:41.347Z,95.00
2018-08-19T08:00:10.499Z,50.67
2018-08-19T08:02:39.101Z,36.57
2018-08-19T08:05:09.006Z,101.23
2018-08-19T08:07:38.846Z,65.90
2018-08-19T08:10:07.324Z,59.03
2018-08-19T08:12:35.941Z,233.10
2018-08-19T08:15:04.388Z,187.50
2018-08-19T08:17:32.846Z,68.73
2018-08-19T08:20:02.114Z,104.83
2018-08-19T08:22:31.404Z,70.53
2018-08-19T08:25:00.230Z,88.90
2018-08-19T08:27:29.492Z,118.70
2018-08-19T08:29:57.848Z,83.00
2018-08-19T08:32:26.341Z,110.70
2018-08-19T08:34:54.883Z,249.00
2018-08-19T08:37:23.334Z,136.47
2018-08-19T08:40:00.717Z,327.10
2018-08-19T08:42:33.752Z,162.50
2018-08-19T08:45:02.635Z,332.17
2018-08-19T08:47:31.870Z,130.33
2018-08-19T08:50:00.208Z,120.40
2018-08-19T08:52:28.721Z,193.10
2018-08-19T08:55:02.080Z,290.80
2018-08-19T08:57:30.580Z,156.30
2018-08-19T08:59:58.977Z,167.70
2018-08-19T09:02:28.418Z,256.00
2018-08-19T09:04:57.009Z,273.57
2018-08-19T09:07:27.079Z,209.03
2018-08-19T09:09:55.489Z,239.53
2018-08-19T09:12:35.110Z,324.67
2018-08-19T09:15:03.536Z,435.93
2018-08-19T09:17:32.112Z,244.03
2018-08-19T09:20:00.661Z,216.37
2018-08-19T09:22:29.078Z,219.87
2018-08-19T09:24:57.451Z,229.57
2018-08-19T09:27:26.104Z,296.47
2018-08-19T09:29:54.600Z,350.77
2018-08-19T09:32:23.100Z,267.90
2018-08-19T09:34:51.660Z,286.77
2018-08-19T09:37:20.032Z,351.37
2018-08-19T09:39:48.433Z,334.90
2018-08-19T09:42:16.992Z,377.53
2018-08-19T09:44:45.332Z,325.77
2018-08-19T09:47:13.774Z,366.97
2018-08-19T09:49:42.332Z,364.53
2018-08-19T09:52:10.740Z,323.13
2018-08-19T09:54:39.365Z,387.80
2018-08-19T09:57:08.861Z,553.13
2018-08-19T09:59:37.243Z,336.87
2018-08-19T10:02:08.907Z,324.63
2018-08-19T10:04:37.378Z,395.53
2018-08-19T10:07:10.367Z,519.27
2018-08-19T10:09:39.067Z,411.30
2018-08-19T10:12:07.959Z,488.07
2018-08-19T10:14:36.411Z,457.30
2018-08-19T10:17:05.038Z,555.73
2018-08-19T10:19:33.689Z,437.23
2018-08-19T10:22:02.270Z,491.53
2018-08-19T10:24:37.544Z,552.87
2018-08-19T10:27:08.089Z,504.90
2018-08-19T10:29:36.496Z,514.53
2018-08-19T10:32:05.497Z,552.90
2018-08-19T10:34:35.409Z,594.03
2018-08-19T10:37:04.329Z,628.43
2018-08-19T10:39:32.932Z,601.67
2018-08-19T10:42:18.692Z,642.43
2018-08-19T10:44:49.466Z,753.73
2018-08-19T10:47:18.408Z,764.20
2018-08-19T10:49:54.450Z,746.27
2018-08-19T10:52:26.321Z,728.77
2018-08-19T10:54:56.081Z,851.20
2018-08-19T10:57:24.484Z,603.67
2018-08-19T10:59:56.376Z,741.13
2018-08-19T11:02:24.976Z,531.07
2018-08-19T11:04:58.735Z,642.63
2018-08-19T11:07:27.352Z,676.37
2018-08-19T11:10:12.671Z,622.23
2018-08-19T11:12:41.044Z,632.83
2018-08-19T11:16:14.333Z,687.13
2018-08-19T11:18:44.323Z,619.77
2018-08-19T11:21:44.860Z,643.27
2018-08-19T11:24:18.932Z,578.80
2018-08-19T11:26:51.594Z,655.10
2018-08-19T11:29:19.988Z,680.07
2018-08-19T11:31:48.409Z,661.00
2018-08-19T11:34:17.839Z,697.40
2018-08-19T11:36:46.496Z,705.27
2018-08-19T11:39:16.318Z,696.20
2018-08-19T11:41:44.921Z,775.37
2018-08-19T11:44:15.902Z,746.67
2018-08-19T11:46:44.408Z,586.90
2018-08-19T11:49:20.142Z,726.73
2018-08-19T11:51:55.063Z,763.93
2018-08-19T11:54:24.951Z,739.23
2018-08-19T11:56:59.845Z,731.70
2018-08-19T11:59:33.381Z,807.60
2018-08-19T12:02:01.942Z,770.60
2018-08-19T12:04:30.358Z,772.97
2018-08-19T12:06:59.024Z,796.23
2018-08-19T12:09:27.539Z,717.43
2018-08-19T12:11:55.886Z,798.27
2018-08-19T12:14:24.464Z,824.70
2018-08-19T12:16:54.632Z,804.77
2018-08-19T12:19:24.172Z,845.33
2018-08-19T12:21:55.947Z,796.63
2018-08-19T12:24:30.004Z,866.87
2018-08-19T12:27:00.375Z,852.57
2018-08-19T12:29:30.985Z,786.17
2018-08-19T12:32:10.902Z,868.33
2018-08-19T12:34:51.622Z,903.47
2018-08-19T12:37:21.365Z,934.13
2018-08-19T12:39:50.205Z,828.37
2018-08-19T12:42:18.604Z,930.97
2018-08-19T12:44:49.577Z,859.88
2018-08-19T12:47:21.139Z,884.20
2018-08-19T12:49:58.077Z,870.48
2018-08-19T12:52:28.885Z,891.65
2018-08-19T12:55:02.583Z,871.25
2018-08-19T12:57:30.980Z,848.12
2018-08-19T13:00:06.141Z,872.80
2018-08-19T13:02:38.964Z,954.23
2018-08-19T13:05:07.472Z,951.67
2018-08-19T13:07:35.888Z,891.17
2018-08-19T13:10:05.754Z,912.50
2018-08-19T13:12:51.392Z,920.45
2018-08-19T13:15:19.799Z,931.30
2018-08-19T13:17:48.248Z,882.80
2018-08-19T13:20:17.735Z,921.97
2018-08-19T13:22:51.021Z,962.67
2018-08-19T13:25:21.009Z,935.88
2018-08-19T13:27:49.415Z,931.17
2018-08-19T13:30:18.796Z,941.53
2018-08-19T13:32:47.571Z,958.20
2018-08-19T13:35:16.067Z,896.23
2018-08-19T13:37:44.523Z,929.60
2018-08-19T13:40:13.785Z,944.13
2018-08-19T13:42:42.534Z,928.75
2018-08-19T13:45:17.927Z,925.07
2018-08-19T13:47:47.577Z,974.92
2018-08-19T13:50:16.055Z,920.08
2018-08-19T13:52:44.875Z,969.48
2018-08-19T13:55:15.451Z,919.82
2018-08-19T13:57:43.839Z,884.37
2018-08-19T14:00:17.704Z,952.62
2018-08-19T14:02:46.863Z,897.45
2018-08-19T14:05:15.303Z,932.08
2018-08-19T14:07:44.163Z,913.80
2018-08-19T14:10:13.908Z,949.05
2018-08-19T14:12:42.583Z,894.63
2018-08-19T14:15:11.012Z,904.87
2018-08-19T14:17:39.483Z,863.43
2018-08-19T14:20:09.376Z,900.38
2018-08-19T14:22:37.768Z,846.67
2018-08-19T14:25:07.663Z,911.08
2018-08-19T14:27:36.273Z,837.27
2018-08-19T14:30:05.865Z,926.52
2018-08-19T14:32:35.666Z,862.20
2018-08-19T14:35:04.850Z,888.98
2018-08-19T14:37:33.347Z,905.33
2018-08-19T14:40:02.643Z,894.03
2018-08-19T14:42:30.966Z,930.95
2018-08-19T14:45:00.181Z,890.12
2018-08-19T14:47:29.947Z,960.90
2018-08-19T14:49:59.254Z,925.40
2018-08-19T14:52:28.468Z,975.28
2018-08-19T14:54:56.887Z,969.82
2018-08-19T14:57:25.531Z,935.15
2018-08-19T14:59:54.150Z,915.23
2018-08-19T15:02:22.613Z,909.33
2018-08-19T15:04:51.097Z,925.55
2018-08-19T15:07:19.685Z,1010.15
2018-08-19T15:09:52.877Z,879.78
2018-08-19T15:12:22.697Z,893.35
2018-08-19T15:14:51.527Z,976.90
2018-08-19T15:17:19.915Z,910.65
2018-08-19T15:19:50.708Z,908.13
2018-08-19T15:22:19.200Z,971.20
2018-08-19T15:24:47.620Z,938.15
2018-08-19T15:27:16.036Z,973.95
2018-08-19T15:29:47.418Z,908.60
2018-08-19T15:32:16.110Z,897.87
2018-08-19T15:34:44.540Z,948.87
2018-08-19T15:37:12.936Z,940.00
2018-08-19T15:39:41.435Z,869.82
2018-08-19T15:42:09.858Z,932.65
2018-08-19T15:44:38.220Z,885.48
2018-08-19T15:47:06.786Z,815.20
2018-08-19T15:49:35.444Z,922.83
2018-08-19T15:52:03.954Z,911.12
2018-08-19T15:54:32.612Z,914.77
2018-08-19T15:57:03.179Z,890.90
2018-08-19T15:59:33.755Z,1009.10
2018-08-19T16:02:03.162Z,1015.02
2018-08-19T16:04:31.635Z,987.43
2018-08-19T16:07:00.664Z,989.02
2018-08-19T16:09:29.693Z,956.98
2018-08-19T16:11:58.131Z,907.42
2018-08-19T16:14:32.581Z,1019.23
2018-08-19T16:17:02.413Z,948.67
2018-08-19T16:19:30.840Z,998.87
2018-08-19T16:22:00.288Z,1015.63
2018-08-19T16:24:28.996Z,974.73
2018-08-19T16:26:57.425Z,928.37
2018-08-19T16:29:25.787Z,900.03
2018-08-19T16:31:54.405Z,936.10
2018-08-19T16:34:22.868Z,926.43
2018-08-19T16:36:51.331Z,952.35
2018-08-19T16:39:20.502Z,892.77
2018-08-19T16:41:48.802Z,827.88
2018-08-19T16:44:17.360Z,956.05
2018-08-19T16:46:45.878Z,901.37
2018-08-19T16:49:14.364Z,900.33
2018-08-19T16:51:44.312Z,901.35
2018-08-19T16:54:12.761Z,925.97
2018-08-19T16:56:41.208Z,842.50
2018-08-19T16:59:09.840Z,898.90
2018-08-19T17:01:38.393Z,922.97
2018-08-19T17:04:06.712Z,907.00
2018-08-19T17:06:37.220Z,931.55
2018-08-19T17:09:09.880Z,862.30
2018-08-19T17:11:38.240Z,903.20
2018-08-19T17:14:06.776Z,853.67
2018-08-19T17:16:35.526Z,909.83
2018-08-19T17:19:04.074Z,842.00
2018-08-19T17:21:32.420Z,875.70
2018-08-19T17:24:00.972Z,907.73
2018-08-19T17:26:30.241Z,839.50
2018-08-19T17:29:04.897Z,833.70
2018-08-19T17:31:34.120Z,801.83
2018-08-19T17:34:07.012Z,856.90
2018-08-19T17:36:35.654Z,800.87
2018-08-19T17:39:05.143Z,805.77
2018-08-19T17:41:33.672Z,904.57
2018-08-19T17:44:03.664Z,893.83
2018-08-19T17:46:32.258Z,878.87
2018-08-19T17:49:00.895Z,896.83
2018-08-19T17:51:34.254Z,881.70
2018-08-19T17:54:02.898Z,869.53
2018-08-19T17:56:31.312Z,642.17
2018-08-19T17:58:59.912Z,636.47
2018-08-19T18:01:28.665Z,720.37
2018-08-19T18:03:57.147Z,628.63
2018-08-19T18:06:25.532Z,579.40
2018-08-19T18:08:54.496Z,621.83
2018-08-19T18:11:23.133Z,640.47
2018-08-19T18:13:51.612Z,756.03
2018-08-19T18:16:20.169Z,604.17
2018-08-19T18:18:48.968Z,643.33
2018-08-19T18:21:17.464Z,785.93
2018-08-19T18:23:47.906Z,746.07
2018-08-19T18:26:16.515Z,777.40
2018-08-19T18:28:46.890Z,818.93
2018-08-19T18:31:21.969Z,830.73
2018-08-19T18:33:53.351Z,765.63
2018-08-19T18:36:23.452Z,758.60
2018-08-19T18:38:51.931Z,770.07
2018-08-19T18:41:26.982Z,666.70
2018-08-19T18:43:58.791Z,750.27
2018-08-19T18:46:28.912Z,715.37
2018-08-19T18:49:03.226Z,693.00
2018-08-19T18:51:33.060Z,613.77
2018-08-19T18:54:01.677Z,772.73
2018-08-19T18:56:30.444Z,596.23
2018-08-19T18:58:59.140Z,618.13
2018-08-19T19:01:27.565Z,657.47
2018-08-19T19:03:55.994Z,487.33
2018-08-19T19:06:24.467Z,656.37
2018-08-19T19:08:53.201Z,588.40
2018-08-19T19:11:23.885Z,690.67
2018-08-19T19:13:52.655Z,573.30
2018-08-19T19:16:27.666Z,573.37
2018-08-19T19:18:56.881Z,432.37
2018-08-19T19:21:25.308Z,372.93
2018-08-19T19:23:53.755Z,468.10
2018-08-19T19:26:27.893Z,632.97
2018-08-19T19:28:58.654Z,577.67
2018-08-19T19:31:27.301Z,635.77
2018-08-19T19:34:06.520Z,590.30
2018-08-19T19:36:35.089Z,462.53
2018-08-19T19:39:03.821Z,400.87
2018-08-19T19:41:33.903Z,435.40
2018-08-19T19:44:35.340Z,474.80
2018-08-19T19:47:04.032Z,449.83
2018-08-19T19:49:32.576Z,361.97
2018-08-19T19:52:02.387Z,388.93
2018-08-19T19:54:31.956Z,589.10
2018-08-19T19:57:01.011Z,537.57
2018-08-19T19:59:32.191Z,497.47
2018-08-19T20:02:01.412Z,457.50
2018-08-19T20:04:29.860Z,514.33
2018-08-19T20:07:02.580Z,450.50
2018-08-19T20:09:34.760Z,571.00
2018-08-19T20:12:03.204Z,504.20
2018-08-19T20:14:35.764Z,514.70
2018-08-19T20:17:04.424Z,450.20
2018-08-19T20:19:33.000Z,571.77
2018-08-19T20:22:01.622Z,360.63
2018-08-19T20:24:30.069Z,426.33
2018-08-19T20:26:58.444Z,371.70
2018-08-19T20:29:26.966Z,384.37
2018-08-19T20:31:55.316Z,490.83
2018-08-19T20:34:23.754Z,526.50
2018-08-19T20:36:52.145Z,396.20
2018-08-19T20:39:20.635Z,451.13
2018-08-19T20:41:49.001Z,389.40
2018-08-19T20:44:17.640Z,391.57
2018-08-19T20:46:50.492Z,541.13
2018-08-19T20:49:18.907Z,434.20
2018-08-19T20:51:47.308Z,295.67
2018-08-19T20:54:15.688Z,422.53
2018-08-19T20:56:44.084Z,365.50
2018-08-19T20:59:13.667Z,442.43
2018-08-19T21:01:42.018Z,402.53
2018-08-19T21:04:10.607Z,487.73
2018-08-19T21:06:39.061Z,434.90
2018-08-19T21:09:07.611Z,461.37
2018-08-19T21:11:36.150Z,337.27
2018-08-19T21:14:05.342Z,465.77
2018-08-19T21:16:33.935Z,292.17
2018-08-19T21:19:02.513Z,248.20
2018-08-19T21:21:31.711Z,378.80
2018-08-19T21:24:00.063Z,120.07
2018-08-19T21:26:28.587Z,256.07
2018-08-19T21:29:03.659Z,278.97
2018-08-19T21:31:33.211Z,305.10
2018-08-19T21:34:01.563Z,386.03
2018-08-19T21:36:29.989Z,386.07
2018-08-19T21:38:58.519Z,364.43
2018-08-19T21:41:44.342Z,284.17
2018-08-19T21:44:13.131Z,344.90
2018-08-19T21:46:41.489Z,248.70
2018-08-19T21:49:10.244Z,421.57
2018-08-19T21:51:38.982Z,382.53
2018-08-19T21:54:08.143Z,218.23
2018-08-19T21:56:36.577Z,251.03
2018-08-19T21:59:09.455Z,294.33
2018-08-19T22:01:40.667Z,310.33
2018-08-19T22:04:09.420Z,241.43
2018-08-19T22:06:37.847Z,168.40
2018-08-19T22:09:10.547Z,161.73
2018-08-19T22:11:39.228Z,244.13
2018-08-19T22:14:07.708Z,282.00
2018-08-19T22:16:36.096Z,261.27
2018-08-19T22:19:04.801Z,160.97
2018-08-19T22:21:33.189Z,244.47
2018-08-19T22:24:01.527Z,254.20
2018-08-19T22:26:29.913Z,80.93
2018-08-19T22:29:15.716Z,145.83
2018-08-19T22:31:44.308Z,252.67
2018-08-19T22:34:12.652Z,119.53
2018-08-19T22:36:41.058Z,135.80
2018-08-19T22:39:10.484Z,219.20
2018-08-19T22:41:38.856Z,252.47
2018-08-19T22:44:07.245Z,123.80
2018-08-19T22:46:35.875Z,111.07
2018-08-19T22:49:04.284Z,69.20
2018-08-19T22:51:33.800Z,232.03
2018-08-19T22:54:02.430Z,123.67
2018-08-19T22:56:30.831Z,149.17
2018-08-19T22:58:59.268Z,205.33
2018-08-19T23:01:33.159Z,151.03
2018-08-19T23:04:02.983Z,168.43
2018-08-19T23:06:32.197Z,207.27
2018-08-19T23:09:01.115Z,190.63
2018-08-19T23:11:35.871Z,75.63
2018-08-19T23:14:15.937Z,154.43
2018-08-19T23:16:44.411Z,135.37
2018-08-19T23:19:13.015Z,179.97
2018-08-19T23:21:41.379Z,149.20
2018-08-19T23:24:09.751Z,177.50
2018-08-19T23:26:38.200Z,156.73
2018-08-19T23:29:06.711Z,160.40
2018-08-19T23:31:35.168Z,76.77
2018-08-19T23:34:03.560Z,155.77
2018-08-19T23:36:32.076Z,121.20
2018-08-19T23:39:00.492Z,152.57
2018-08-19T23:41:28.886Z,185.23
2018-08-19T23:43:57.251Z,221.07
2018-08-19T23:46:25.644Z,151.10
2018-08-19T23:48:54.232Z,64.07
2018-08-19T23:51:25.885Z,95.00
2018-08-19T23:53:54.220Z,65.67
2018-08-19T23:56:22.736Z,176.93
2018-08-19T23:58:51.200Z,44.83
